Athens, IL

8:35 AM CDT on October 24, 2014 (GMT -0500)
Barn Hollow | Change Station
CLOSE
Current Station
Personal Weather Station
Location: Athens, IL
Elevation: 604 ft
Nearby Weather Stations

Elev 604 ft 39.96 °N, 89.74 °W | Updated 9 minutes ago

Fog
Fog
53.8 °F
Feels Like 53.8 °F
N
1.7
Wind Variable Wind from South

Today
High -- | Low -- °F
--% Chance of Precip.
Yesterday
High -- | Low -- °F
Precip. -- in
7:18 AM 6:06 PM
New Moon, 0% visible
Pressure 30.09 in
Visibility 0.2 miles
Clouds
Dew Point 53 °F
Humidity 98%
Rainfall 0.00 in
Snow Depth Not available.
UV Not available.
Pollen 1.50 out of 12
Ozone Good
PM2.5 Good
Flu Activity No Activity
METAR KSPI 241252Z 00000KT 1/4SM R04/1600V1800FT FG VV002 12/12 A3009 RMK AO2 SLP189 T01220117

More Conditions Fewer Conditions

Pressure 30.09 in
Visibility 0.2 miles
Clouds
Dew Point 53 °F
Humidity 98%
Rainfall 0.00 in
Snow Depth Not available.
UV Not available.
Pollen 1.50 out of 12
Ozone Good
PM2.5 Good
Flu Activity No Activity
METAR KSPI 241252Z 00000KT 1/4SM R04/1600V1800FT FG VV002 12/12 A3009 RMK AO2 SLP189 T01220117

More Conditions Fewer Conditions

10-Day Weather Forecast

Almanac

Astronomy

Oct. 24, 2014 Rise Set
Actual Time 7:18 AM CDT 6:06 PM CDT
Civil Twilight 6:51 AM CDT 6:34 PM CDT
Nautical Twilight 6:19 AM CDT 7:05 PM CDT
Astronomical Twilight 5:48 AM CDT 7:37 PM CDT
Moon 7:58 AM CDT 6:46 PM CDT
Length of Visible Light 11h 42m
Length of Day
10h 47m
Tomorrow will be 2m 26s shorter.
New Moon, 0% of the Moon is Illuminated
Today
New Moon
Oct 30
First Quarter
Nov 6
Full
Nov 14
Last Quarter
Nov 22
New

Today's Extremes

State Highs State Lows

Community

WunderPhotos

Upload Photos

1,764,550 photos uploaded!

WunderBlogs® & News

Nearby

Air Quality

  Air Quality AQ Index Pollutant
Yesterday Good
PM2.5
Yesterday Good
OZONE
Current Good
PM2.5
Current Good
OZONE
Friday Good
PM2.5
Saturday Good
PM2.5
Sunday Good
PM2.5
Monday Good
PM2.5

Snow Depth

Station Depth Elevation
No new snow has been reported.

Earthquake Activity

City Distance Mag. Time & Date
No recent earthquake activity has been reported nearby.
Minimum magnitude displayed is 2.5.

Coastal Water Temperatures

Place Temperature
No Stations Reporting

Nearby Weather Stations